sensor_id;sensor_type;location;lat;lon;timestamp;pressure;altitude;pressure_sealevel;temperature;humidity
78673;BME280;67988;60.086;30.354;2023-02-27T00:01:13;101327.81;;;-5.62;67.46
78673;BME280;67988;60.086;30.354;2023-02-27T00:03:40;101316.69;;;-5.89;67.81
78673;BME280;67988;60.086;30.354;2023-02-27T00:06:08;101332.97;;;-5.62;67.40
78673;BME280;67988;60.086;30.354;2023-02-27T00:08:34;101341.63;;;-5.60;67.19
78673;BME280;67988;60.086;30.354;2023-02-27T00:11:01;101350.28;;;-5.58;67.02
78673;BME280;67988;60.086;30.354;2023-02-27T00:13:28;101356.34;;;-5.72;67.66
78673;BME280;67988;60.086;30.354;2023-02-27T00:15:55;101345.97;;;-5.63;67.65
78673;BME280;67988;60.086;30.354;2023-02-27T00:18:22;101349.41;;;-5.61;67.12
78673;BME280;67988;60.086;30.354;2023-02-27T00:20:49;101311.50;;;-5.91;67.35
78673;BME280;67988;60.086;30.354;2023-02-27T00:23:17;101365.81;;;-5.59;67.32
78673;BME280;67988;60.086;30.354;2023-02-27T00:25:44;101365.88;;;-5.73;67.91
78673;BME280;67988;60.086;30.354;2023-02-27T00:28:11;101373.63;;;-5.64;67.66
78673;BME280;67988;60.086;30.354;2023-02-27T00:30:38;101371.03;;;-5.65;67.64
78673;BME280;67988;60.086;30.354;2023-02-27T00:33:05;101384.88;;;-5.74;68.00
78673;BME280;67988;60.086;30.354;2023-02-27T00:35:32;101385.75;;;-6.08;68.97
78673;BME280;67988;60.086;30.354;2023-02-27T00:37:59;101378.00;;;-5.92;68.73
78673;BME280;67988;60.086;30.354;2023-02-27T00:40:28;101387.47;;;-6.00;68.69
78673;BME280;67988;60.086;30.354;2023-02-27T00:42:55;101391.81;;;-6.03;68.93
78673;BME280;67988;60.086;30.354;2023-02-27T00:45:22;101396.97;;;-5.93;68.47
78673;BME280;67988;60.086;30.354;2023-02-27T00:47:49;101401.28;;;-5.88;68.37
78673;BME280;67988;60.086;30.354;2023-02-27T00:50:16;101415.13;;;-6.00;68.50
78673;BME280;67988;60.086;30.354;2023-02-27T00:52:43;101414.25;;;-6.08;68.83
78673;BME280;67988;60.086;30.354;2023-02-27T00:55:10;101394.34;;;-6.32;69.23
78673;BME280;67988;60.086;30.354;2023-02-27T00:57:38;101425.50;;;-6.06;68.90
78673;BME280;67988;60.086;30.354;2023-02-27T01:00:07;101340.88;;;-6.44;68.50
78673;BME280;67988;60.086;30.354;2023-02-27T01:02:34;101433.28;;;-5.96;68.21
78673;BME280;67988;60.086;30.354;2023-02-27T01:05:02;101436.72;;;-5.90;68.07
78673;BME280;67988;60.086;30.354;2023-02-27T01:07:30;101424.63;;;-6.17;68.60
78673;BME280;67988;60.086;30.354;2023-02-27T01:09:59;101436.72;;;-6.06;68.31
78673;BME280;67988;60.086;30.354;2023-02-27T01:12:26;101447.94;;;-6.07;68.25
78673;BME280;67988;60.086;30.354;2023-02-27T01:14:54;101459.16;;;-6.06;68.49
78673;BME280;67988;60.086;30.354;2023-02-27T01:17:22;101459.09;;;-6.21;68.63
78673;BME280;67988;60.086;30.354;2023-02-27T01:19:49;101459.97;;;-6.21;68.37
78673;BME280;67988;60.086;30.354;2023-02-27T01:22:15;101466.88;;;-6.33;68.58
78673;BME280;67988;60.086;30.354;2023-02-27T01:24:42;101464.22;;;-6.43;68.93
78673;BME280;67988;60.086;30.354;2023-02-27T01:27:09;101461.66;;;-6.46;68.95
78673;BME280;67988;60.086;30.354;2023-02-27T01:29:36;101474.53;;;-6.59;69.47
78673;BME280;67988;60.086;30.354;2023-02-27T01:32:05;101466.75;;;-6.64;69.01
78673;BME280;67988;60.086;30.354;2023-02-27T01:34:32;101474.44;;;-6.84;69.51
78673;BME280;67988;60.086;30.354;2023-02-27T01:37:01;101448.38;;;-7.17;69.99
78673;BME280;67988;60.086;30.354;2023-02-27T01:39:28;101488.22;;;-6.89;69.77
78673;BME280;67988;60.086;30.354;2023-02-27T01:41:57;101488.16;;;-6.92;69.60
78673;BME280;67988;60.086;30.354;2023-02-27T01:44:28;101494.13;;;-7.07;70.07
78673;BME280;67988;60.086;30.354;2023-02-27T01:46:55;101501.06;;;-7.04;70.07
78673;BME280;67988;60.086;30.354;2023-02-27T01:49:26;101510.47;;;-7.12;70.01
78673;BME280;67988;60.086;30.354;2023-02-27T01:51:57;101515.50;;;-7.34;70.97
78673;BME280;67988;60.086;30.354;2023-02-27T01:54:29;101521.66;;;-7.16;70.13
78673;BME280;67988;60.086;30.354;2023-02-27T01:56:57;101530.09;;;-7.40;70.42
78673;BME280;67988;60.086;30.354;2023-02-27T01:59:28;101529.22;;;-7.39;70.33
78673;BME280;67988;60.086;30.354;2023-02-27T02:01:56;101527.59;;;-7.31;70.52
78673;BME280;67988;60.086;30.354;2023-02-27T02:04:26;101530.19;;;-7.28;70.67
78673;BME280;67988;60.086;30.354;2023-02-27T02:06:59;101530.06;;;-7.45;70.85
78673;BME280;67988;60.086;30.354;2023-02-27T02:09:27;101553.31;;;-7.45;71.24
78673;BME280;67988;60.086;30.354;2023-02-27T02:11:56;101554.19;;;-7.43;71.42
78673;BME280;67988;60.086;30.354;2023-02-27T02:14:23;101553.34;;;-7.42;71.35
78673;BME280;67988;60.086;30.354;2023-02-27T02:17:12;101567.19;;;-7.31;70.62
78673;BME280;67988;60.086;30.354;2023-02-27T02:19:55;101557.59;;;-7.48;71.28
78673;BME280;67988;60.086;30.354;2023-02-27T02:28:57;101580.66;;;-7.68;71.26
78673;BME280;67988;60.086;30.354;2023-02-27T02:35:04;101590.13;;;-7.70;71.09
78673;BME280;67988;60.086;30.354;2023-02-27T02:40:45;101604.56;;;-7.87;71.37
78673;BME280;67988;60.086;30.354;2023-02-27T02:43:24;101600.31;;;-7.82;70.91
78673;BME280;67988;60.086;30.354;2023-02-27T02:46:00;101604.38;;;-8.04;71.58
78673;BME280;67988;60.086;30.354;2023-02-27T02:48:34;101609.44;;;-8.13;71.41
78673;BME280;67988;60.086;30.354;2023-02-27T02:51:04;101613.72;;;-8.14;71.45
78673;BME280;67988;60.086;30.354;2023-02-27T02:53:40;101626.72;;;-8.06;71.25
78673;BME280;67988;60.086;30.354;2023-02-27T02:56:16;101629.34;;;-8.02;70.98
78673;BME280;67988;60.086;30.354;2023-02-27T02:58:51;101637.88;;;-8.09;71.43
78673;BME280;67988;60.086;30.354;2023-02-27T03:01:26;101650.75;;;-8.13;71.54
78673;BME280;67988;60.086;30.354;2023-02-27T03:04:01;101651.59;;;-8.11;71.31
78673;BME280;67988;60.086;30.354;2023-02-27T03:06:31;101652.41;;;-8.17;71.61
78673;BME280;67988;60.086;30.354;2023-02-27T03:09:05;101652.34;;;-8.21;71.30
78673;BME280;67988;60.086;30.354;2023-02-27T03:11:38;101652.22;;;-8.35;71.35
78673;BME280;67988;60.086;30.354;2023-02-27T03:14:10;101655.69;;;-8.28;71.23
78673;BME280;67988;60.086;30.354;2023-02-27T03:16:40;101665.84;;;-8.43;72.03
78673;BME280;67988;60.086;30.354;2023-02-27T03:19:12;101668.63;;;-8.30;71.52
78673;BME280;67988;60.086;30.354;2023-02-27T03:21:46;101660.47;;;-8.56;72.24
78673;BME280;67988;60.086;30.354;2023-02-27T03:24:18;101671.47;;;-8.69;72.11
78673;BME280;67988;60.086;30.354;2023-02-27T03:26:50;101669.56;;;-8.80;72.70
78673;BME280;67988;60.086;30.354;2023-02-27T03:29:25;101674.25;;;-8.57;72.04
78673;BME280;67988;60.086;30.354;2023-02-27T03:31:58;101675.88;;;-8.62;72.29
78673;BME280;67988;60.086;30.354;2023-02-27T03:34:29;101672.00;;;-8.32;71.04
78673;BME280;67988;60.086;30.354;2023-02-27T03:37:02;101673.16;;;-8.71;71.60
78673;BME280;67988;60.086;30.354;2023-02-27T03:39:36;101669.31;;;-8.41;70.99
78673;BME280;67988;60.086;30.354;2023-02-27T03:42:13;101681.47;;;-8.33;71.31
78673;BME280;67988;60.086;30.354;2023-02-27T03:45:10;101685.06;;;-8.20;70.51
78673;BME280;67988;60.086;30.354;2023-02-27T03:47:40;101688.59;;;-8.12;70.38
78673;BME280;67988;60.086;30.354;2023-02-27T03:50:09;101692.88;;;-8.13;70.52
78673;BME280;67988;60.086;30.354;2023-02-27T03:52:36;101694.00;;;-7.97;69.85
78673;BME280;67988;60.086;30.354;2023-02-27T03:55:08;101691.44;;;-7.94;69.86
78673;BME280;67988;60.086;30.354;2023-02-27T03:57:39;101702.78;;;-7.81;69.41
78673;BME280;67988;60.086;30.354;2023-02-27T04:00:12;101708.13;;;-7.68;69.07
78673;BME280;67988;60.086;30.354;2023-02-27T04:02:43;101721.97;;;-7.64;69.22
78673;BME280;67988;60.086;30.354;2023-02-27T04:05:14;101722.66;;;-7.74;69.46
78673;BME280;67988;60.086;30.354;2023-02-27T04:07:55;101731.09;;;-7.89;70.19
78673;BME280;67988;60.086;30.354;2023-02-27T04:10:37;101736.59;;;-7.65;69.54
78673;BME280;67988;60.086;30.354;2023-02-27T04:13:24;101745.84;;;-7.82;69.94
78673;BME280;67988;60.086;30.354;2023-02-27T04:16:04;101740.84;;;-7.70;70.17
78673;BME280;67988;60.086;30.354;2023-02-27T04:18:52;101751.69;;;-7.93;70.97
78673;BME280;67988;60.086;30.354;2023-02-27T04:21:25;101755.28;;;-7.84;70.88
78673;BME280;67988;60.086;30.354;2023-02-27T04:23:56;101743.22;;;-7.83;70.36
78673;BME280;67988;60.086;30.354;2023-02-27T04:26:29;101760.09;;;-8.07;71.48
78673;BME280;67988;60.086;30.354;2023-02-27T04:29:02;101760.25;;;-7.97;71.61
78673;BME280;67988;60.086;30.354;2023-02-27T04:31:39;101771.38;;;-8.02;71.50
78673;BME280;67988;60.086;30.354;2023-02-27T04:34:13;101785.47;;;-7.81;71.08
78673;BME280;67988;60.086;30.354;2023-02-27T04:36:45;101766.16;;;-8.08;70.99
78673;BME280;67988;60.086;30.354;2023-02-27T04:39:18;101783.91;;;-8.30;71.37
78673;BME280;67988;60.086;30.354;2023-02-27T04:41:50;101784.13;;;-8.12;70.57
78673;BME280;67988;60.086;30.354;2023-02-27T04:44:23;101789.97;;;-8.25;70.57
78673;BME280;67988;60.086;30.354;2023-02-27T04:46:53;101797.13;;;-8.62;71.50
78673;BME280;67988;60.086;30.354;2023-02-27T04:49:23;101756.78;;;-9.08;71.53
78673;BME280;67988;60.086;30.354;2023-02-27T04:51:55;101788.94;;;-8.88;70.39
78673;BME280;67988;60.086;30.354;2023-02-27T04:54:27;101802.88;;;-8.76;70.60
78673;BME280;67988;60.086;30.354;2023-02-27T04:56:59;101813.66;;;-8.52;69.73
78673;BME280;67988;60.086;30.354;2023-02-27T04:59:33;101808.19;;;-8.69;69.78
78673;BME280;67988;60.086;30.354;2023-02-27T05:02:06;101817.56;;;-8.74;69.32
78673;BME280;67988;60.086;30.354;2023-02-27T05:04:37;101816.91;;;-8.62;69.15
78673;BME280;67988;60.086;30.354;2023-02-27T05:07:07;101825.81;;;-8.92;69.38
78673;BME280;67988;60.086;30.354;2023-02-27T05:09:44;101826.84;;;-8.82;69.31
78673;BME280;67988;60.086;30.354;2023-02-27T05:12:15;101835.53;;;-8.78;68.76
78673;BME280;67988;60.086;30.354;2023-02-27T05:14:51;101803.53;;;-9.33;69.76
78673;BME280;67988;60.086;30.354;2023-02-27T05:17:21;101845.22;;;-9.10;70.17
78673;BME280;67988;60.086;30.354;2023-02-27T05:19:51;101830.69;;;-9.05;69.11
78673;BME280;67988;60.086;30.354;2023-02-27T05:22:23;101853.03;;;-9.07;69.79
78673;BME280;67988;60.086;30.354;2023-02-27T05:24:58;101854.31;;;-8.85;69.08
78673;BME280;67988;60.086;30.354;2023-02-27T05:27:32;101859.22;;;-8.98;69.57
78673;BME280;67988;60.086;30.354;2023-02-27T05:30:05;101849.19;;;-9.27;70.02
78673;BME280;67988;60.086;30.354;2023-02-27T05:32:41;101863.16;;;-9.16;70.06
78673;BME280;67988;60.086;30.354;2023-02-27T05:35:15;101850.66;;;-9.39;70.07
78673;BME280;67988;60.086;30.354;2023-02-27T05:37:45;101868.88;;;-9.29;70.37
78673;BME280;67988;60.086;30.354;2023-02-27T05:40:15;101872.84;;;-9.45;71.04
78673;BME280;67988;60.086;30.354;2023-02-27T05:42:50;101868.06;;;-9.67;71.51
78673;BME280;67988;60.086;30.354;2023-02-27T05:45:22;101883.00;;;-9.51;71.19
78673;BME280;67988;60.086;30.354;2023-02-27T05:47:54;101878.97;;;-9.40;71.26
78673;BME280;67988;60.086;30.354;2023-02-27T05:50:27;101853.16;;;-9.81;71.28
78673;BME280;67988;60.086;30.354;2023-02-27T05:52:58;101885.63;;;-9.50;70.97
78673;BME280;67988;60.086;30.354;2023-02-27T05:55:31;101897.41;;;-9.61;71.04
78673;BME280;67988;60.086;30.354;2023-02-27T05:58:04;101889.44;;;-9.71;71.23
78673;BME280;67988;60.086;30.354;2023-02-27T06:00:37;101891.53;;;-9.54;71.09
78673;BME280;67988;60.086;30.354;2023-02-27T06:03:05;101864.50;;;-9.73;70.86
78673;BME280;67988;60.086;30.354;2023-02-27T06:05:35;101891.84;;;-9.78;71.01
78673;BME280;67988;60.086;30.354;2023-02-27T06:08:02;101893.84;;;-9.66;70.83
78673;BME280;67988;60.086;30.354;2023-02-27T06:10:29;101898.38;;;-9.54;70.41
78673;BME280;67988;60.086;30.354;2023-02-27T06:12:56;101886.84;;;-9.71;70.67
78673;BME280;67988;60.086;30.354;2023-02-27T06:15:23;101897.88;;;-9.76;70.85
78673;BME280;67988;60.086;30.354;2023-02-27T06:17:51;101890.41;;;-9.66;70.55
78673;BME280;67988;60.086;30.354;2023-02-27T06:20:19;101888.66;;;-9.67;70.10
78673;BME280;67988;60.086;30.354;2023-02-27T06:22:46;101899.38;;;-9.49;69.55
78673;BME280;67988;60.086;30.354;2023-02-27T06:25:13;101896.09;;;-9.42;69.31
78673;BME280;67988;60.086;30.354;2023-02-27T06:27:40;101904.84;;;-9.73;69.63
78673;BME280;67988;60.086;30.354;2023-02-27T06:30:08;101896.22;;;-9.74;70.14
78673;BME280;67988;60.086;30.354;2023-02-27T06:32:36;101889.69;;;-9.59;70.06
78673;BME280;67988;60.086;30.354;2023-02-27T06:35:05;101888.56;;;-9.33;69.03
78673;BME280;67988;60.086;30.354;2023-02-27T06:37:32;101888.56;;;-9.33;68.54
78673;BME280;67988;60.086;30.354;2023-02-27T06:39:59;101899.28;;;-9.13;68.30
78673;BME280;67988;60.086;30.354;2023-02-27T06:42:26;101903.38;;;-9.23;68.30
78673;BME280;67988;60.086;30.354;2023-02-27T06:44:53;101911.63;;;-9.39;67.85
78673;BME280;67988;60.086;30.354;2023-02-27T06:47:20;101918.75;;;-9.27;67.88
78673;BME280;67988;60.086;30.354;2023-02-27T06:49:47;101914.75;;;-9.52;68.24
78673;BME280;67988;60.086;30.354;2023-02-27T06:52:15;101910.53;;;-9.50;68.67
78673;BME280;67988;60.086;30.354;2023-02-27T06:54:42;101901.25;;;-9.80;68.26
78673;BME280;67988;60.086;30.354;2023-02-27T06:57:09;101839.28;;;-9.87;67.90
78673;BME280;67988;60.086;30.354;2023-02-27T06:59:36;101913.00;;;-9.14;67.26
78673;BME280;67988;60.086;30.354;2023-02-27T07:02:03;101925.03;;;-9.16;67.32
78673;BME280;67988;60.086;30.354;2023-02-27T07:04:30;101920.50;;;-9.25;67.19
78673;BME280;67988;60.086;30.354;2023-02-27T07:06:57;101914.56;;;-9.22;67.11
78673;BME280;67988;60.086;30.354;2023-02-27T07:09:26;101926.00;;;-9.10;66.86
78673;BME280;67988;60.086;30.354;2023-02-27T07:11:52;101924.06;;;-9.20;67.21
78673;BME280;67988;60.086;30.354;2023-02-27T07:14:19;101855.53;;;-9.51;66.73
78673;BME280;67988;60.086;30.354;2023-02-27T07:16:46;101929.13;;;-9.24;66.60
78673;BME280;67988;60.086;30.354;2023-02-27T07:19:18;101932.94;;;-9.07;66.36
78673;BME280;67988;60.086;30.354;2023-02-27T07:21:45;101921.16;;;-9.35;66.77
78673;BME280;67988;60.086;30.354;2023-02-27T07:24:12;101922.06;;;-9.33;66.69
78673;BME280;67988;60.086;30.354;2023-02-27T07:26:40;101927.13;;;-9.36;67.38
78673;BME280;67988;60.086;30.354;2023-02-27T07:29:07;101929.41;;;-9.11;66.58
78673;BME280;67988;60.086;30.354;2023-02-27T07:31:34;101933.72;;;-9.11;67.12
78673;BME280;67988;60.086;30.354;2023-02-27T07:34:02;101918.16;;;-9.14;66.69
78673;BME280;67988;60.086;30.354;2023-02-27T07:36:29;101932.63;;;-8.80;66.11
78673;BME280;67988;60.086;30.354;2023-02-27T07:38:56;101940.94;;;-8.95;66.26
78673;BME280;67988;60.086;30.354;2023-02-27T07:41:24;101928.34;;;-8.80;65.65
78673;BME280;67988;60.086;30.354;2023-02-27T07:43:52;101929.34;;;-8.72;65.14
78673;BME280;67988;60.086;30.354;2023-02-27T07:46:19;101938.91;;;-8.66;64.71
78673;BME280;67988;60.086;30.354;2023-02-27T07:48:48;101935.75;;;-8.53;64.66
78673;BME280;67988;60.086;30.354;2023-02-27T07:51:15;101944.03;;;-8.69;64.96
78673;BME280;67988;60.086;30.354;2023-02-27T07:53:42;101939.78;;;-8.67;64.69
78673;BME280;67988;60.086;30.354;2023-02-27T07:56:09;101946.75;;;-8.63;64.97
78673;BME280;67988;60.086;30.354;2023-02-27T07:58:36;101963.09;;;-8.61;64.18
78673;BME280;67988;60.086;30.354;2023-02-27T08:01:04;101961.78;;;-8.84;64.98
78673;BME280;67988;60.086;30.354;2023-02-27T08:03:31;101960.13;;;-8.81;64.82
78673;BME280;67988;60.086;30.354;2023-02-27T08:05:58;101961.44;;;-8.59;64.46
78673;BME280;67988;60.086;30.354;2023-02-27T08:08:25;101952.69;;;-8.67;64.44
78673;BME280;67988;60.086;30.354;2023-02-27T08:10:52;101969.25;;;-8.55;63.76
78673;BME280;67988;60.086;30.354;2023-02-27T08:13:20;101962.63;;;-8.42;63.55
78673;BME280;67988;60.086;30.354;2023-02-27T08:15:47;101959.34;;;-8.33;63.45
78673;BME280;67988;60.086;30.354;2023-02-27T08:18:15;101965.63;;;-8.19;63.17
78673;BME280;67988;60.086;30.354;2023-02-27T08:20:42;101970.66;;;-8.25;63.12
78673;BME280;67988;60.086;30.354;2023-02-27T08:23:09;101963.78;;;-8.25;62.73
78673;BME280;67988;60.086;30.354;2023-02-27T08:25:36;101970.69;;;-8.24;62.77
78673;BME280;67988;60.086;30.354;2023-02-27T08:28:03;101961.97;;;-8.32;63.43
78673;BME280;67988;60.086;30.354;2023-02-27T08:30:30;101973.38;;;-8.18;62.71
78673;BME280;67988;60.086;30.354;2023-02-27T08:32:57;101962.47;;;-8.02;62.68
78673;BME280;67988;60.086;30.354;2023-02-27T08:35:25;101950.59;;;-7.90;62.18
78673;BME280;67988;60.086;30.354;2023-02-27T08:37:52;101953.69;;;-7.62;61.27
78673;BME280;67988;60.086;30.354;2023-02-27T08:40:19;101949.41;;;-7.59;61.25
78673;BME280;67988;60.086;30.354;2023-02-27T08:42:46;101962.00;;;-7.79;61.67
78673;BME280;67988;60.086;30.354;2023-02-27T08:45:16;101956.78;;;-7.82;62.44
78673;BME280;67988;60.086;30.354;2023-02-27T08:47:43;101955.44;;;-7.57;61.86
78673;BME280;67988;60.086;30.354;2023-02-27T08:50:11;101956.53;;;-7.45;61.39
78673;BME280;67988;60.086;30.354;2023-02-27T08:52:39;101957.44;;;-7.41;61.49
78673;BME280;67988;60.086;30.354;2023-02-27T08:55:07;101972.78;;;-7.53;61.87
78673;BME280;67988;60.086;30.354;2023-02-27T08:57:34;101958.56;;;-7.78;62.38
78673;BME280;67988;60.086;30.354;2023-02-27T09:00:02;101966.19;;;-7.33;61.44
78673;BME280;67988;60.086;30.354;2023-02-27T09:02:30;101975.03;;;-7.18;61.15
78673;BME280;67988;60.086;30.354;2023-02-27T09:04:57;101971.91;;;-6.92;60.10
78673;BME280;67988;60.086;30.354;2023-02-27T09:07:24;101971.91;;;-6.95;59.85
78673;BME280;67988;60.086;30.354;2023-02-27T09:09:53;101979.72;;;-6.91;60.04
78673;BME280;67988;60.086;30.354;2023-02-27T09:12:19;101974.03;;;-6.62;59.43
78673;BME280;67988;60.086;30.354;2023-02-27T09:14:46;101976.75;;;-6.52;58.87
78673;BME280;67988;60.086;30.354;2023-02-27T09:17:14;101967.25;;;-6.53;58.13
78673;BME280;67988;60.086;30.354;2023-02-27T09:19:40;101966.78;;;-6.18;57.59
78673;BME280;67988;60.086;30.354;2023-02-27T09:22:07;101978.81;;;-6.23;57.71
78673;BME280;67988;60.086;30.354;2023-02-27T09:24:34;101983.22;;;-6.15;57.43
78673;BME280;67988;60.086;30.354;2023-02-27T09:27:03;101982.38;;;-6.12;57.91
78673;BME280;67988;60.086;30.354;2023-02-27T09:29:30;101990.38;;;-5.91;57.08
78673;BME280;67988;60.086;30.354;2023-02-27T09:31:57;101992.22;;;-5.72;57.08
78673;BME280;67988;60.086;30.354;2023-02-27T09:34:24;101982.97;;;-5.45;56.10
78673;BME280;67988;60.086;30.354;2023-02-27T09:36:51;101988.25;;;-5.32;56.20
78673;BME280;67988;60.086;30.354;2023-02-27T09:39:18;101990.94;;;-5.18;55.92
78673;BME280;67988;60.086;30.354;2023-02-27T09:41:52;101991.84;;;-5.10;55.72
78673;BME280;67988;60.086;30.354;2023-02-27T09:44:30;101980.63;;;-5.08;55.75
78673;BME280;67988;60.086;30.354;2023-02-27T09:46:58;101991.72;;;-5.31;56.69
78673;BME280;67988;60.086;30.354;2023-02-27T09:49:28;101912.63;;;-5.91;56.95
78673;BME280;67988;60.086;30.354;2023-02-27T09:51:57;102012.34;;;-5.43;57.21
78673;BME280;67988;60.086;30.354;2023-02-27T09:54:30;101983.97;;;-5.27;56.75
78673;BME280;67988;60.086;30.354;2023-02-27T09:57:01;102001.94;;;-5.50;57.58
78673;BME280;67988;60.086;30.354;2023-02-27T09:59:34;102000.00;;;-5.73;58.44
78673;BME280;67988;60.086;30.354;2023-02-27T10:02:12;102008.94;;;-5.41;57.34
78673;BME280;67988;60.086;30.354;2023-02-27T10:04:47;102007.09;;;-5.54;57.99
78673;BME280;67988;60.086;30.354;2023-02-27T10:07:21;102013.06;;;-5.63;58.00
78673;BME280;67988;60.086;30.354;2023-02-27T10:10:01;102004.63;;;-5.37;57.70
78673;BME280;67988;60.086;30.354;2023-02-27T10:12:50;102015.72;;;-5.54;58.02
78673;BME280;67988;60.086;30.354;2023-02-27T10:15:25;102009.00;;;-5.29;57.95
78673;BME280;67988;60.086;30.354;2023-02-27T10:17:55;102007.78;;;-5.72;58.68
78673;BME280;67988;60.086;30.354;2023-02-27T10:20:27;102008.38;;;-6.06;60.43
78673;BME280;67988;60.086;30.354;2023-02-27T10:22:58;102004.19;;;-5.92;60.63
78673;BME280;67988;60.086;30.354;2023-02-27T10:25:26;102005.16;;;-5.76;60.02
78673;BME280;67988;60.086;30.354;2023-02-27T10:27:59;102011.31;;;-5.65;60.04
78673;BME280;67988;60.086;30.354;2023-02-27T10:30:29;102001.78;;;-5.66;60.24
78673;BME280;67988;60.086;30.354;2023-02-27T10:33:03;101987.72;;;-5.97;61.07
78673;BME280;67988;60.086;30.354;2023-02-27T10:35:35;101966.38;;;-5.66;60.67
78673;BME280;67988;60.086;30.354;2023-02-27T10:38:07;101989.03;;;-5.39;59.96
78673;BME280;67988;60.086;30.354;2023-02-27T10:40:39;101984.00;;;-5.18;59.34
78673;BME280;67988;60.086;30.354;2023-02-27T10:43:07;101981.44;;;-5.19;59.80
78673;BME280;67988;60.086;30.354;2023-02-27T10:45:35;101986.63;;;-5.16;59.41
78673;BME280;67988;60.086;30.354;2023-02-27T10:48:03;101978.88;;;-5.07;59.37
78673;BME280;67988;60.086;30.354;2023-02-27T10:50:32;101997.16;;;-4.93;59.14
78673;BME280;67988;60.086;30.354;2023-02-27T10:53:02;101994.56;;;-4.92;59.19
78673;BME280;67988;60.086;30.354;2023-02-27T10:55:30;101997.22;;;-4.83;58.86
78673;BME280;67988;60.086;30.354;2023-02-27T10:57:58;101993.75;;;-4.82;59.03
78673;BME280;67988;60.086;30.354;2023-02-27T11:00:31;101996.47;;;-4.51;58.52
78673;BME280;67988;60.086;30.354;2023-02-27T11:03:01;101995.72;;;-4.28;58.31
78673;BME280;67988;60.086;30.354;2023-02-27T11:05:30;102006.94;;;-4.35;58.28
78673;BME280;67988;60.086;30.354;2023-02-27T11:08:11;102018.16;;;-4.48;58.74
78673;BME280;67988;60.086;30.354;2023-02-27T11:10:53;102012.03;;;-4.60;59.47
78673;BME280;67988;60.086;30.354;2023-02-27T11:13:22;101999.97;;;-4.45;59.46
78673;BME280;67988;60.086;30.354;2023-02-27T11:16:12;102008.75;;;-4.20;59.46
78673;BME280;67988;60.086;30.354;2023-02-27T11:18:41;102022.47;;;-4.51;59.79
78673;BME280;67988;60.086;30.354;2023-02-27T11:21:19;101994.84;;;-4.31;59.48
78673;BME280;67988;60.086;30.354;2023-02-27T11:24:05;102007.88;;;-4.22;59.64
78673;BME280;67988;60.086;30.354;2023-02-27T11:26:34;101995.66;;;-4.46;60.60
78673;BME280;67988;60.086;30.354;2023-02-27T11:29:19;102007.91;;;-4.01;60.30
78673;BME280;67988;60.086;30.354;2023-02-27T11:31:50;102007.88;;;-4.16;61.67
78673;BME280;67988;60.086;30.354;2023-02-27T11:34:22;102018.22;;;-4.34;62.77
78673;BME280;67988;60.086;30.354;2023-02-27T11:36:52;102004.44;;;-4.15;62.93
78673;BME280;67988;60.086;30.354;2023-02-27T11:39:24;101994.03;;;-4.09;63.30
78673;BME280;67988;60.086;30.354;2023-02-27T11:41:53;101998.44;;;-3.71;62.48
78673;BME280;67988;60.086;30.354;2023-02-27T11:44:25;102003.66;;;-3.50;62.22
78673;BME280;67988;60.086;30.354;2023-02-27T11:47:06;101981.97;;;-3.37;62.02
78673;BME280;67988;60.086;30.354;2023-02-27T11:49:40;101996.56;;;-2.62;59.94
78673;BME280;67988;60.086;30.354;2023-02-27T11:52:12;101976.63;;;-2.69;59.25
78673;BME280;67988;60.086;30.354;2023-02-27T11:54:44;101991.19;;;-2.28;58.40
78673;BME280;67988;60.086;30.354;2023-02-27T11:57:22;101981.75;;;-2.55;59.40
78673;BME280;67988;60.086;30.354;2023-02-27T11:59:52;101990.34;;;-2.27;58.54
78673;BME280;67988;60.086;30.354;2023-02-27T12:02:26;101992.28;;;-2.73;59.54
78673;BME280;67988;60.086;30.354;2023-02-27T12:04:59;101992.97;;;-2.33;58.23
78673;BME280;67988;60.086;30.354;2023-02-27T12:07:32;101989.53;;;-2.41;57.68
78673;BME280;67988;60.086;30.354;2023-02-27T12:10:05;101955.75;;;-2.57;57.69
78673;BME280;67988;60.086;30.354;2023-02-27T12:12:41;101984.28;;;-2.34;57.13
78673;BME280;67988;60.086;30.354;2023-02-27T12:15:18;101964.06;;;-1.95;56.13
78673;BME280;67988;60.086;30.354;2023-02-27T12:17:50;101960.66;;;-2.03;55.19
78673;BME280;67988;60.086;30.354;2023-02-27T12:20:27;101960.91;;;-2.46;56.69
78673;BME280;67988;60.086;30.354;2023-02-27T12:22:55;101921.44;;;-1.90;55.31
78673;BME280;67988;60.086;30.354;2023-02-27T12:25:34;101956.31;;;-1.02;52.55
78673;BME280;67988;60.086;30.354;2023-02-27T12:28:07;101945.53;;;-0.06;49.88
78673;BME280;67988;60.086;30.354;2023-02-27T12:30:41;101935.81;;;1.46;46.85
78673;BME280;67988;60.086;30.354;2023-02-27T12:33:16;101934.38;;;1.72;44.73
78673;BME280;67988;60.086;30.354;2023-02-27T12:35:52;101956.13;;;2.84;42.43
78673;BME280;67988;60.086;30.354;2023-02-27T12:38:21;101961.16;;;2.61;41.92
78673;BME280;67988;60.086;30.354;2023-02-27T12:41:00;101957.69;;;2.93;41.49
78673;BME280;67988;60.086;30.354;2023-02-27T12:43:30;101944.88;;;2.79;41.12
78673;BME280;67988;60.086;30.354;2023-02-27T12:46:17;101937.56;;;1.86;42.83
78673;BME280;67988;60.086;30.354;2023-02-27T12:49:07;101933.16;;;1.88;43.12
78673;BME280;67988;60.086;30.354;2023-02-27T12:51:44;101935.81;;;1.46;42.90
78673;BME280;67988;60.086;30.354;2023-02-27T12:54:21;101922.75;;;0.53;44.68
78673;BME280;67988;60.086;30.354;2023-02-27T12:57:23;101918.06;;;-0.37;47.70
78673;BME280;67988;60.086;30.354;2023-02-27T13:00:05;101930.81;;;-0.80;47.95
78673;BME280;67988;60.086;30.354;2023-02-27T13:02:52;101939.00;;;-1.09;48.39
78673;BME280;67988;60.086;30.354;2023-02-27T13:05:30;101925.41;;;-1.46;49.23
78673;BME280;67988;60.086;30.354;2023-02-27T13:08:08;101968.47;;;-2.03;51.57
78673;BME280;67988;60.086;30.354;2023-02-27T13:10:43;101951.19;;;-2.20;52.60
78673;BME280;67988;60.086;30.354;2023-02-27T13:13:17;101939.03;;;-2.21;53.34